Terminal Aerodrome Forecast
Issued by NWS

Current Version | Previous Version | Text Only | Print | Product List | Glossary On
Versions: 1 2 3 4 5 6 7 8 9 10 11 12 13 14 15 16 17 18 19 20 21 22 23 24 25 26 27
894
FTUS46 KEKA 241144
TAFCEC
TAF
KCEC 241144Z 2412/2512 VRB03KT 1/2SM FG VV002
      TEMPO 2412/2416 1/4SM FG VV002
     FM241600 17007KT 1 1/2SM BR BKN002
      TEMPO 2416/2418 1/2SM FG VV002
     FM241900 21007KT 4SM BR BKN002
      TEMPO 2420/2424 29010KT SCT002
     FM250100 16008KT 1/2SM FG VV002=

USA.gov is the U.S. government's official web portal to all federal, state and local government web resources and services.